sensor_id;sensor_type;location;lat;lon;timestamp;temperature;humidity
35678;DHT22;21791;42.828;74.582;2022-12-18T00:01:34;-3.40;99.90
35678;DHT22;21791;42.828;74.582;2022-12-18T00:04:05;-3.70;99.90
35678;DHT22;21791;42.828;74.582;2022-12-18T00:06:33;-3.90;99.90
35678;DHT22;21791;42.828;74.582;2022-12-18T00:09:00;-4.00;99.90
35678;DHT22;21791;42.828;74.582;2022-12-18T00:11:29;-4.00;99.90
35678;DHT22;21791;42.828;74.582;2022-12-18T00:13:58;-4.10;99.90
35678;DHT22;21791;42.828;74.582;2022-12-18T00:16:25;-4.30;99.90
35678;DHT22;21791;42.828;74.582;2022-12-18T00:18:54;-4.30;99.90
35678;DHT22;21791;42.828;74.582;2022-12-18T00:21:21;-4.40;99.90
35678;DHT22;21791;42.828;74.582;2022-12-18T00:23:51;-4.30;99.90
35678;DHT22;21791;42.828;74.582;2022-12-18T00:26:20;-4.40;99.90
35678;DHT22;21791;42.828;74.582;2022-12-18T00:28:48;-4.20;99.90
35678;DHT22;21791;42.828;74.582;2022-12-18T00:31:20;-4.10;99.90
35678;DHT22;21791;42.828;74.582;2022-12-18T00:33:48;-4.40;99.90
35678;DHT22;21791;42.828;74.582;2022-12-18T00:36:17;-4.40;99.90
35678;DHT22;21791;42.828;74.582;2022-12-18T00:38:45;-4.20;99.90
35678;DHT22;21791;42.828;74.582;2022-12-18T00:41:13;-4.20;99.90
35678;DHT22;21791;42.828;74.582;2022-12-18T00:44:01;-4.10;99.90
35678;DHT22;21791;42.828;74.582;2022-12-18T00:46:27;-4.20;99.90
35678;DHT22;21791;42.828;74.582;2022-12-18T00:48:54;-4.30;99.90
35678;DHT22;21791;42.828;74.582;2022-12-18T00:51:21;-4.40;99.90
35678;DHT22;21791;42.828;74.582;2022-12-18T00:53:47;-4.40;99.90
35678;DHT22;21791;42.828;74.582;2022-12-18T00:56:14;-4.30;99.90
35678;DHT22;21791;42.828;74.582;2022-12-18T00:58:40;-4.20;99.90
35678;DHT22;21791;42.828;74.582;2022-12-18T01:01:07;-4.30;99.90
35678;DHT22;21791;42.828;74.582;2022-12-18T01:03:34;-4.40;99.90
35678;DHT22;21791;42.828;74.582;2022-12-18T01:06:09;-4.30;99.90
35678;DHT22;21791;42.828;74.582;2022-12-18T01:08:38;-4.30;99.90
35678;DHT22;21791;42.828;74.582;2022-12-18T01:11:13;-4.30;99.90
35678;DHT22;21791;42.828;74.582;2022-12-18T01:13:40;-4.30;99.90
35678;DHT22;21791;42.828;74.582;2022-12-18T01:16:07;-4.40;99.90
35678;DHT22;21791;42.828;74.582;2022-12-18T01:18:35;-4.40;99.90
35678;DHT22;21791;42.828;74.582;2022-12-18T01:21:15;-4.50;99.90
35678;DHT22;21791;42.828;74.582;2022-12-18T01:23:42;-4.50;99.90
35678;DHT22;21791;42.828;74.582;2022-12-18T01:26:11;-4.40;99.90
35678;DHT22;21791;42.828;74.582;2022-12-18T01:28:38;-4.40;99.90
35678;DHT22;21791;42.828;74.582;2022-12-18T01:31:21;-4.50;99.90
35678;DHT22;21791;42.828;74.582;2022-12-18T01:33:47;-4.60;99.90
35678;DHT22;21791;42.828;74.582;2022-12-18T01:36:25;-4.60;99.90
35678;DHT22;21791;42.828;74.582;2022-12-18T01:38:53;-4.30;99.90
35678;DHT22;21791;42.828;74.582;2022-12-18T01:41:23;-4.40;99.90
35678;DHT22;21791;42.828;74.582;2022-12-18T01:43:57;-4.60;99.90
35678;DHT22;21791;42.828;74.582;2022-12-18T01:46:25;-4.50;99.90
35678;DHT22;21791;42.828;74.582;2022-12-18T01:48:57;-4.70;99.90
35678;DHT22;21791;42.828;74.582;2022-12-18T01:51:26;-4.70;99.90
35678;DHT22;21791;42.828;74.582;2022-12-18T01:53:53;-4.80;99.90
35678;DHT22;21791;42.828;74.582;2022-12-18T01:56:20;-4.80;99.90
35678;DHT22;21791;42.828;74.582;2022-12-18T01:59:00;-4.90;99.90
35678;DHT22;21791;42.828;74.582;2022-12-18T02:01:30;-4.90;99.90
35678;DHT22;21791;42.828;74.582;2022-12-18T02:04:20;-4.80;99.90
35678;DHT22;21791;42.828;74.582;2022-12-18T02:06:50;-4.80;99.90
35678;DHT22;21791;42.828;74.582;2022-12-18T02:09:33;-5.10;99.90
35678;DHT22;21791;42.828;74.582;2022-12-18T02:12:25;-5.10;99.90
35678;DHT22;21791;42.828;74.582;2022-12-18T02:18:06;-5.30;99.90
35678;DHT22;21791;42.828;74.582;2022-12-18T02:20:47;-5.20;99.90
35678;DHT22;21791;42.828;74.582;2022-12-18T02:29:12;-5.00;99.90
35678;DHT22;21791;42.828;74.582;2022-12-18T02:31:51;-5.00;99.90
35678;DHT22;21791;42.828;74.582;2022-12-18T02:34:20;-5.00;99.90
35678;DHT22;21791;42.828;74.582;2022-12-18T02:36:48;-5.20;99.90
35678;DHT22;21791;42.828;74.582;2022-12-18T02:39:16;-5.10;99.90
35678;DHT22;21791;42.828;74.582;2022-12-18T02:41:44;-5.00;99.90
35678;DHT22;21791;42.828;74.582;2022-12-18T02:44:13;-5.00;99.90
35678;DHT22;21791;42.828;74.582;2022-12-18T02:46:42;-4.90;99.90
35678;DHT22;21791;42.828;74.582;2022-12-18T02:52:39;-4.70;99.90
35678;DHT22;21791;42.828;74.582;2022-12-18T02:55:28;-4.60;99.90
35678;DHT22;21791;42.828;74.582;2022-12-18T03:04:35;-4.20;99.90
35678;DHT22;21791;42.828;74.582;2022-12-18T03:07:11;-4.20;99.90
35678;DHT22;21791;42.828;74.582;2022-12-18T03:09:43;-4.10;99.90
35678;DHT22;21791;42.828;74.582;2022-12-18T03:12:28;-3.90;99.90
35678;DHT22;21791;42.828;74.582;2022-12-18T03:15:35;-3.80;99.90
35678;DHT22;21791;42.828;74.582;2022-12-18T03:18:10;-3.70;99.90
35678;DHT22;21791;42.828;74.582;2022-12-18T03:20:40;-3.70;99.90
35678;DHT22;21791;42.828;74.582;2022-12-18T03:23:14;-3.80;99.90
35678;DHT22;21791;42.828;74.582;2022-12-18T03:25:44;-3.70;99.90
35678;DHT22;21791;42.828;74.582;2022-12-18T03:28:14;-3.70;99.90
35678;DHT22;21791;42.828;74.582;2022-12-18T03:30:44;-3.50;99.90
35678;DHT22;21791;42.828;74.582;2022-12-18T03:33:23;-3.40;99.90
35678;DHT22;21791;42.828;74.582;2022-12-18T03:35:52;-3.30;99.90
35678;DHT22;21791;42.828;74.582;2022-12-18T03:38:19;-3.20;99.90
35678;DHT22;21791;42.828;74.582;2022-12-18T03:42:05;-3.00;99.90
35678;DHT22;21791;42.828;74.582;2022-12-18T03:47:09;-1.40;99.90
35678;DHT22;21791;42.828;74.582;2022-12-18T03:49:56;-0.60;99.90
35678;DHT22;21791;42.828;74.582;2022-12-18T03:52:28;0.10;99.90
35678;DHT22;21791;42.828;74.582;2022-12-18T03:54:57;0.70;99.90
35678;DHT22;21791;42.828;74.582;2022-12-18T03:57:29;1.20;99.90
35678;DHT22;21791;42.828;74.582;2022-12-18T04:00:10;1.60;99.90
35678;DHT22;21791;42.828;74.582;2022-12-18T04:02:39;2.10;99.90
35678;DHT22;21791;42.828;74.582;2022-12-18T04:05:07;2.60;99.90
35678;DHT22;21791;42.828;74.582;2022-12-18T04:07:36;2.90;99.90
35678;DHT22;21791;42.828;74.582;2022-12-18T04:10:07;3.50;99.90
35678;DHT22;21791;42.828;74.582;2022-12-18T04:12:33;3.80;99.90
35678;DHT22;21791;42.828;74.582;2022-12-18T04:15:00;4.00;99.90
35678;DHT22;21791;42.828;74.582;2022-12-18T04:17:26;4.10;99.90
35678;DHT22;21791;42.828;74.582;2022-12-18T04:19:53;4.60;99.90
35678;DHT22;21791;42.828;74.582;2022-12-18T04:22:20;4.90;99.90
35678;DHT22;21791;42.828;74.582;2022-12-18T04:24:46;4.40;99.90
35678;DHT22;21791;42.828;74.582;2022-12-18T04:27:13;5.00;99.90
35678;DHT22;21791;42.828;74.582;2022-12-18T04:29:39;4.70;99.90
35678;DHT22;21791;42.828;74.582;2022-12-18T04:32:07;4.70;99.90
35678;DHT22;21791;42.828;74.582;2022-12-18T04:34:34;4.10;99.90
35678;DHT22;21791;42.828;74.582;2022-12-18T04:37:01;3.70;99.90
35678;DHT22;21791;42.828;74.582;2022-12-18T04:39:27;3.10;99.90
35678;DHT22;21791;42.828;74.582;2022-12-18T04:41:54;3.30;99.90
35678;DHT22;21791;42.828;74.582;2022-12-18T04:44:21;3.80;99.90
35678;DHT22;21791;42.828;74.582;2022-12-18T04:46:47;3.70;99.90
35678;DHT22;21791;42.828;74.582;2022-12-18T04:49:14;3.80;99.90
35678;DHT22;21791;42.828;74.582;2022-12-18T04:51:40;3.70;99.90
35678;DHT22;21791;42.828;74.582;2022-12-18T04:54:07;3.90;99.90
35678;DHT22;21791;42.828;74.582;2022-12-18T04:56:33;4.70;99.90
35678;DHT22;21791;42.828;74.582;2022-12-18T04:59:00;4.00;99.90
35678;DHT22;21791;42.828;74.582;2022-12-18T05:01:27;4.70;99.90
35678;DHT22;21791;42.828;74.582;2022-12-18T05:03:53;5.20;99.90
35678;DHT22;21791;42.828;74.582;2022-12-18T05:06:20;5.40;99.90
35678;DHT22;21791;42.828;74.582;2022-12-18T05:08:46;5.00;99.90
35678;DHT22;21791;42.828;74.582;2022-12-18T05:11:14;5.40;99.90
35678;DHT22;21791;42.828;74.582;2022-12-18T05:13:44;5.60;99.90
35678;DHT22;21791;42.828;74.582;2022-12-18T05:16:12;6.10;99.90
35678;DHT22;21791;42.828;74.582;2022-12-18T05:18:39;6.20;99.90
35678;DHT22;21791;42.828;74.582;2022-12-18T05:21:06;6.20;99.90
35678;DHT22;21791;42.828;74.582;2022-12-18T05:23:35;6.40;99.90
35678;DHT22;21791;42.828;74.582;2022-12-18T05:26:04;7.10;99.90
35678;DHT22;21791;42.828;74.582;2022-12-18T05:28:33;7.00;99.90
35678;DHT22;21791;42.828;74.582;2022-12-18T05:31:01;7.30;99.90
35678;DHT22;21791;42.828;74.582;2022-12-18T05:33:31;7.90;99.90
35678;DHT22;21791;42.828;74.582;2022-12-18T05:36:00;7.70;99.90
35678;DHT22;21791;42.828;74.582;2022-12-18T05:38:28;7.80;99.90
35678;DHT22;21791;42.828;74.582;2022-12-18T05:40:55;8.30;99.90
35678;DHT22;21791;42.828;74.582;2022-12-18T05:43:24;8.30;99.90
35678;DHT22;21791;42.828;74.582;2022-12-18T05:45:51;7.70;99.90
35678;DHT22;21791;42.828;74.582;2022-12-18T05:48:19;6.70;99.90
35678;DHT22;21791;42.828;74.582;2022-12-18T05:50:47;6.70;99.90
35678;DHT22;21791;42.828;74.582;2022-12-18T05:53:16;7.10;99.90
35678;DHT22;21791;42.828;74.582;2022-12-18T05:55:44;7.70;99.90
35678;DHT22;21791;42.828;74.582;2022-12-18T05:58:12;6.80;99.90
35678;DHT22;21791;42.828;74.582;2022-12-18T06:00:41;6.70;99.90
35678;DHT22;21791;42.828;74.582;2022-12-18T06:03:10;7.30;99.90
35678;DHT22;21791;42.828;74.582;2022-12-18T06:05:39;7.40;99.90
35678;DHT22;21791;42.828;74.582;2022-12-18T06:08:07;7.90;99.90
35678;DHT22;21791;42.828;74.582;2022-12-18T06:10:34;7.90;99.90
35678;DHT22;21791;42.828;74.582;2022-12-18T06:13:01;8.00;99.90
35678;DHT22;21791;42.828;74.582;2022-12-18T06:15:28;7.70;99.90
35678;DHT22;21791;42.828;74.582;2022-12-18T06:17:55;7.10;99.90
35678;DHT22;21791;42.828;74.582;2022-12-18T06:20:22;7.00;99.90
35678;DHT22;21791;42.828;74.582;2022-12-18T06:22:48;7.20;99.90
35678;DHT22;21791;42.828;74.582;2022-12-18T06:25:16;7.90;99.90
35678;DHT22;21791;42.828;74.582;2022-12-18T06:27:42;7.10;99.90
35678;DHT22;21791;42.828;74.582;2022-12-18T06:30:10;7.70;99.90
35678;DHT22;21791;42.828;74.582;2022-12-18T06:32:37;8.00;99.90
35678;DHT22;21791;42.828;74.582;2022-12-18T06:35:04;8.30;99.90
35678;DHT22;21791;42.828;74.582;2022-12-18T06:37:31;7.90;99.90
35678;DHT22;21791;42.828;74.582;2022-12-18T06:39:58;6.30;99.90
35678;DHT22;21791;42.828;74.582;2022-12-18T06:42:29;7.30;99.90
35678;DHT22;21791;42.828;74.582;2022-12-18T06:44:55;7.90;99.90
35678;DHT22;21791;42.828;74.582;2022-12-18T06:47:23;7.90;99.90
35678;DHT22;21791;42.828;74.582;2022-12-18T06:49:49;7.20;99.90
35678;DHT22;21791;42.828;74.582;2022-12-18T06:52:16;7.40;99.90
35678;DHT22;21791;42.828;74.582;2022-12-18T06:54:48;7.50;99.90
35678;DHT22;21791;42.828;74.582;2022-12-18T06:57:18;8.20;99.90
35678;DHT22;21791;42.828;74.582;2022-12-18T06:59:44;8.40;99.50
35678;DHT22;21791;42.828;74.582;2022-12-18T07:02:12;8.20;99.60
35678;DHT22;21791;42.828;74.582;2022-12-18T07:04:38;8.50;99.10
35678;DHT22;21791;42.828;74.582;2022-12-18T07:07:05;9.00;98.50
35678;DHT22;21791;42.828;74.582;2022-12-18T07:09:32;8.80;98.30
35678;DHT22;21791;42.828;74.582;2022-12-18T07:11:58;9.10;97.80
35678;DHT22;21791;42.828;74.582;2022-12-18T07:14:25;9.00;97.80
35678;DHT22;21791;42.828;74.582;2022-12-18T07:16:51;9.60;96.70
35678;DHT22;21791;42.828;74.582;2022-12-18T07:19:19;9.40;95.50
35678;DHT22;21791;42.828;74.582;2022-12-18T07:21:45;8.70;96.60
35678;DHT22;21791;42.828;74.582;2022-12-18T07:24:12;9.20;95.00
35678;DHT22;21791;42.828;74.582;2022-12-18T07:26:38;9.00;98.20
35678;DHT22;21791;42.828;74.582;2022-12-18T07:29:05;9.70;96.40
35678;DHT22;21791;42.828;74.582;2022-12-18T07:31:31;9.80;93.90
35678;DHT22;21791;42.828;74.582;2022-12-18T07:33:58;9.80;93.70
35678;DHT22;21791;42.828;74.582;2022-12-18T07:36:25;9.30;94.10
35678;DHT22;21791;42.828;74.582;2022-12-18T07:38:54;9.50;92.80
35678;DHT22;21791;42.828;74.582;2022-12-18T07:41:21;9.30;92.70
35678;DHT22;21791;42.828;74.582;2022-12-18T07:43:48;8.40;94.00
35678;DHT22;21791;42.828;74.582;2022-12-18T07:46:15;8.10;94.80
35678;DHT22;21791;42.828;74.582;2022-12-18T07:48:42;7.30;96.20
35678;DHT22;21791;42.828;74.582;2022-12-18T07:51:10;6.50;98.50
35678;DHT22;21791;42.828;74.582;2022-12-18T07:53:36;6.50;99.50
35678;DHT22;21791;42.828;74.582;2022-12-18T07:56:06;6.80;99.00
35678;DHT22;21791;42.828;74.582;2022-12-18T07:58:34;7.00;98.90
35678;DHT22;21791;42.828;74.582;2022-12-18T08:01:09;7.40;98.20
35678;DHT22;21791;42.828;74.582;2022-12-18T08:03:37;7.00;99.90
35678;DHT22;21791;42.828;74.582;2022-12-18T08:06:07;7.20;99.90
35678;DHT22;21791;42.828;74.582;2022-12-18T08:08:35;6.60;99.90
35678;DHT22;21791;42.828;74.582;2022-12-18T08:11:02;6.80;99.90
35678;DHT22;21791;42.828;74.582;2022-12-18T08:13:29;6.10;99.90
35678;DHT22;21791;42.828;74.582;2022-12-18T08:16:16;5.30;99.90
35678;DHT22;21791;42.828;74.582;2022-12-18T08:18:43;4.80;99.90
35678;DHT22;21791;42.828;74.582;2022-12-18T08:21:15;4.60;99.90
35678;DHT22;21791;42.828;74.582;2022-12-18T08:23:42;4.30;99.90
35678;DHT22;21791;42.828;74.582;2022-12-18T08:26:14;4.20;99.90
35678;DHT22;21791;42.828;74.582;2022-12-18T08:28:41;4.10;99.90
35678;DHT22;21791;42.828;74.582;2022-12-18T08:31:08;4.40;99.90
35678;DHT22;21791;42.828;74.582;2022-12-18T08:33:36;4.50;99.90
35678;DHT22;21791;42.828;74.582;2022-12-18T08:36:04;4.30;99.90
35678;DHT22;21791;42.828;74.582;2022-12-18T08:38:32;4.30;99.90
35678;DHT22;21791;42.828;74.582;2022-12-18T08:41:10;4.30;99.90
35678;DHT22;21791;42.828;74.582;2022-12-18T08:43:37;4.10;99.90
35678;DHT22;21791;42.828;74.582;2022-12-18T08:46:24;4.40;99.90
35678;DHT22;21791;42.828;74.582;2022-12-18T08:48:52;4.50;99.90
35678;DHT22;21791;42.828;74.582;2022-12-18T08:51:19;4.70;99.90
35678;DHT22;21791;42.828;74.582;2022-12-18T08:53:46;4.60;99.90
35678;DHT22;21791;42.828;74.582;2022-12-18T08:56:14;4.60;99.90
35678;DHT22;21791;42.828;74.582;2022-12-18T08:58:41;4.20;99.90
35678;DHT22;21791;42.828;74.582;2022-12-18T09:01:09;4.10;99.90
35678;DHT22;21791;42.828;74.582;2022-12-18T09:03:37;4.00;99.90
35678;DHT22;21791;42.828;74.582;2022-12-18T09:06:05;4.00;99.90
35678;DHT22;21791;42.828;74.582;2022-12-18T09:08:32;3.80;99.90
35678;DHT22;21791;42.828;74.582;2022-12-18T09:10:58;4.10;99.90
35678;DHT22;21791;42.828;74.582;2022-12-18T09:13:25;4.10;99.90
35678;DHT22;21791;42.828;74.582;2022-12-18T09:15:53;3.80;99.90
35678;DHT22;21791;42.828;74.582;2022-12-18T09:18:22;3.70;99.90
35678;DHT22;21791;42.828;74.582;2022-12-18T09:20:49;3.70;99.90
35678;DHT22;21791;42.828;74.582;2022-12-18T09:23:19;3.50;99.90
35678;DHT22;21791;42.828;74.582;2022-12-18T09:25:46;3.50;99.90
35678;DHT22;21791;42.828;74.582;2022-12-18T09:28:16;3.50;99.90
35678;DHT22;21791;42.828;74.582;2022-12-18T09:30:45;3.40;99.90
35678;DHT22;21791;42.828;74.582;2022-12-18T09:33:13;3.30;99.90
35678;DHT22;21791;42.828;74.582;2022-12-18T09:35:41;3.30;99.90
35678;DHT22;21791;42.828;74.582;2022-12-18T09:38:12;3.30;99.90
35678;DHT22;21791;42.828;74.582;2022-12-18T09:40:45;3.30;99.90
35678;DHT22;21791;42.828;74.582;2022-12-18T09:43:35;3.30;99.90
35678;DHT22;21791;42.828;74.582;2022-12-18T09:46:10;3.30;99.90
35678;DHT22;21791;42.828;74.582;2022-12-18T09:48:44;3.20;99.90
35678;DHT22;21791;42.828;74.582;2022-12-18T09:51:18;3.20;99.90
35678;DHT22;21791;42.828;74.582;2022-12-18T09:53:52;3.30;99.90
35678;DHT22;21791;42.828;74.582;2022-12-18T09:56:21;3.10;99.90
35678;DHT22;21791;42.828;74.582;2022-12-18T09:58:59;3.10;99.90
35678;DHT22;21791;42.828;74.582;2022-12-18T10:01:28;3.10;99.90
35678;DHT22;21791;42.828;74.582;2022-12-18T10:03:55;3.00;99.90
35678;DHT22;21791;42.828;74.582;2022-12-18T10:06:37;2.90;99.90
35678;DHT22;21791;42.828;74.582;2022-12-18T10:11:43;2.70;99.90
35678;DHT22;21791;42.828;74.582;2022-12-18T10:19:55;2.60;99.90
35678;DHT22;21791;42.828;74.582;2022-12-18T10:22:40;2.50;99.90
35678;DHT22;21791;42.828;74.582;2022-12-18T10:25:21;2.40;99.90
35678;DHT22;21791;42.828;74.582;2022-12-18T10:27:56;2.30;99.90
35678;DHT22;21791;42.828;74.582;2022-12-18T10:30:25;2.20;99.90
35678;DHT22;21791;42.828;74.582;2022-12-18T10:32:52;2.20;99.90
35678;DHT22;21791;42.828;74.582;2022-12-18T10:35:22;2.10;99.90
35678;DHT22;21791;42.828;74.582;2022-12-18T10:38:06;2.10;99.90
35678;DHT22;21791;42.828;74.582;2022-12-18T10:40:36;2.00;99.90
35678;DHT22;21791;42.828;74.582;2022-12-18T10:43:15;1.90;99.90
35678;DHT22;21791;42.828;74.582;2022-12-18T10:46:02;1.80;99.90
35678;DHT22;21791;42.828;74.582;2022-12-18T10:48:39;1.60;99.90
35678;DHT22;21791;42.828;74.582;2022-12-18T10:51:07;1.40;99.90
35678;DHT22;21791;42.828;74.582;2022-12-18T10:53:36;1.30;99.90
35678;DHT22;21791;42.828;74.582;2022-12-18T10:56:05;1.20;99.90
35678;DHT22;21791;42.828;74.582;2022-12-18T10:58:35;1.10;99.90
35678;DHT22;21791;42.828;74.582;2022-12-18T11:01:13;1.00;99.90
35678;DHT22;21791;42.828;74.582;2022-12-18T11:06:17;0.80;99.90
35678;DHT22;21791;42.828;74.582;2022-12-18T11:08:57;0.70;99.90
35678;DHT22;21791;42.828;74.582;2022-12-18T11:11:25;0.50;99.90
35678;DHT22;21791;42.828;74.582;2022-12-18T11:16:28;0.30;99.90
35678;DHT22;21791;42.828;74.582;2022-12-18T11:22:03;0.30;99.90
35678;DHT22;21791;42.828;74.582;2022-12-18T11:24:59;0.10;99.90
35678;DHT22;21791;42.828;74.582;2022-12-18T11:27:35;0.00;99.90
35678;DHT22;21791;42.828;74.582;2022-12-18T11:32:54;-0.20;99.90
35678;DHT22;21791;42.828;74.582;2022-12-18T11:38:38;-0.30;99.90
35678;DHT22;21791;42.828;74.582;2022-12-18T11:41:33;-0.40;99.90
35678;DHT22;21791;42.828;74.582;2022-12-18T11:44:26;-0.40;99.90
35678;DHT22;21791;42.828;74.582;2022-12-18T11:47:09;-0.40;99.90
35678;DHT22;21791;42.828;74.582;2022-12-18T11:49:41;-0.50;99.90
35678;DHT22;21791;42.828;74.582;2022-12-18T11:52:22;-0.50;99.90
35678;DHT22;21791;42.828;74.582;2022-12-18T11:54:57;-0.60;99.90
35678;DHT22;21791;42.828;74.582;2022-12-18T12:00:20;-0.70;99.90
35678;DHT22;21791;42.828;74.582;2022-12-18T12:11:09;-1.00;99.90
35678;DHT22;21791;42.828;74.582;2022-12-18T12:17:19;-1.00;99.90
35678;DHT22;21791;42.828;74.582;2022-12-18T12:19:51;-0.80;99.90
35678;DHT22;21791;42.828;74.582;2022-12-18T12:28:19;-1.20;99.90
35678;DHT22;21791;42.828;74.582;2022-12-18T12:31:00;-1.00;99.90
35678;DHT22;21791;42.828;74.582;2022-12-18T12:33:40;-1.00;99.90
35678;DHT22;21791;42.828;74.582;2022-12-18T12:38:49;-1.00;99.90
35678;DHT22;21791;42.828;74.582;2022-12-18T12:41:21;-1.10;99.90
35678;DHT22;21791;42.828;74.582;2022-12-18T12:44:13;-0.80;99.90
35678;DHT22;21791;42.828;74.582;2022-12-18T12:46:42;-0.70;99.90
35678;DHT22;21791;42.828;74.582;2022-12-18T12:49:21;-1.00;99.90
35678;DHT22;21791;42.828;74.582;2022-12-18T12:52:14;-0.90;99.90
35678;DHT22;21791;42.828;74.582;2022-12-18T12:54:43;-0.90;99.90
35678;DHT22;21791;42.828;74.582;2022-12-18T12:57:21;-1.10;99.90
35678;DHT22;21791;42.828;74.582;2022-12-18T13:00:18;-1.40;99.90
35678;DHT22;21791;42.828;74.582;2022-12-18T13:03:11;-1.30;99.90
35678;DHT22;21791;42.828;74.582;2022-12-18T13:05:54;-1.50;99.90
35678;DHT22;21791;42.828;74.582;2022-12-18T13:08:27;-1.70;99.90
35678;DHT22;21791;42.828;74.582;2022-12-18T13:10:58;-1.60;99.90
35678;DHT22;21791;42.828;74.582;2022-12-18T13:13:54;-1.70;99.90
35678;DHT22;21791;42.828;74.582;2022-12-18T13:16:23;-1.90;99.90
35678;DHT22;21791;42.828;74.582;2022-12-18T13:18:52;-1.60;99.90
35678;DHT22;21791;42.828;74.582;2022-12-18T13:21:22;-1.80;99.90
35678;DHT22;21791;42.828;74.582;2022-12-18T13:23:50;-1.80;99.90
35678;DHT22;21791;42.828;74.582;2022-12-18T13:31:14;-1.70;99.90
35678;DHT22;21791;42.828;74.582;2022-12-18T13:33:46;-1.70;99.90
35678;DHT22;21791;42.828;74.582;2022-12-18T13:36:33;-1.70;99.90
35678;DHT22;21791;42.828;74.582;2022-12-18T13:39:32;-1.90;99.90
35678;DHT22;21791;42.828;74.582;2022-12-18T13:44:38;-2.00;99.90
35678;DHT22;21791;42.828;74.582;2022-12-18T13:49:59;-2.00;99.90
35678;DHT22;21791;42.828;74.582;2022-12-18T13:52:34;-2.00;99.90
35678;DHT22;21791;42.828;74.582;2022-12-18T13:55:15;-2.00;99.90
35678;DHT22;21791;42.828;74.582;2022-12-18T13:57:43;-2.10;99.90
35678;DHT22;21791;42.828;74.582;2022-12-18T14:00:29;-2.10;99.90
35678;DHT22;21791;42.828;74.582;2022-12-18T14:02:58;-2.20;99.90
35678;DHT22;21791;42.828;74.582;2022-12-18T14:05:31;-2.30;99.90
35678;DHT22;21791;42.828;74.582;2022-12-18T14:08:10;-2.30;99.90
35678;DHT22;21791;42.828;74.582;2022-12-18T14:10:45;-2.40;99.90
35678;DHT22;21791;42.828;74.582;2022-12-18T14:13:26;-2.20;99.90
35678;DHT22;21791;42.828;74.582;2022-12-18T14:15:54;-2.50;99.90
35678;DHT22;21791;42.828;74.582;2022-12-18T14:18:52;-2.60;99.90
35678;DHT22;21791;42.828;74.582;2022-12-18T14:21:29;-2.40;99.90
35678;DHT22;21791;42.828;74.582;2022-12-18T14:24:18;-2.50;99.90
35678;DHT22;21791;42.828;74.582;2022-12-18T14:26:47;-2.80;99.90
35678;DHT22;21791;42.828;74.582;2022-12-18T14:29:24;-3.00;99.90
35678;DHT22;21791;42.828;74.582;2022-12-18T14:32:16;-3.00;99.90
35678;DHT22;21791;42.828;74.582;2022-12-18T14:34:49;-2.80;99.90
35678;DHT22;21791;42.828;74.582;2022-12-18T14:37:21;-2.90;99.90
35678;DHT22;21791;42.828;74.582;2022-12-18T14:40:00;-3.20;99.90
35678;DHT22;21791;42.828;74.582;2022-12-18T14:42:28;-3.00;99.90
35678;DHT22;21791;42.828;74.582;2022-12-18T14:45:32;-2.80;99.90
35678;DHT22;21791;42.828;74.582;2022-12-18T14:48:00;-3.50;99.90
35678;DHT22;21791;42.828;74.582;2022-12-18T14:50:32;-3.40;99.90
35678;DHT22;21791;42.828;74.582;2022-12-18T14:52:59;-2.90;99.90
35678;DHT22;21791;42.828;74.582;2022-12-18T14:55:26;-3.20;99.90
35678;DHT22;21791;42.828;74.582;2022-12-18T14:57:55;-2.90;99.90
35678;DHT22;21791;42.828;74.582;2022-12-18T15:00:24;-2.80;99.90
35678;DHT22;21791;42.828;74.582;2022-12-18T15:02:56;-2.80;99.90
35678;DHT22;21791;42.828;74.582;2022-12-18T15:05:28;-3.50;99.90
35678;DHT22;21791;42.828;74.582;2022-12-18T15:07:58;-3.20;99.90
35678;DHT22;21791;42.828;74.582;2022-12-18T15:10:28;-3.10;99.90
35678;DHT22;21791;42.828;74.582;2022-12-18T15:20:48;-3.20;99.90
35678;DHT22;21791;42.828;74.582;2022-12-18T15:28:32;-2.90;99.90
35678;DHT22;21791;42.828;74.582;2022-12-18T15:31:42;-2.90;99.90
35678;DHT22;21791;42.828;74.582;2022-12-18T15:36:23;-3.40;99.90
35678;DHT22;21791;42.828;74.582;2022-12-18T15:38:53;-3.80;99.90
35678;DHT22;21791;42.828;74.582;2022-12-18T15:41:21;-3.70;99.90
35678;DHT22;21791;42.828;74.582;2022-12-18T15:43:52;-3.70;99.90
35678;DHT22;21791;42.828;74.582;2022-12-18T15:46:24;-3.30;99.90
35678;DHT22;21791;42.828;74.582;2022-12-18T15:48:54;-3.50;99.90
35678;DHT22;21791;42.828;74.582;2022-12-18T15:51:35;-3.30;99.90
35678;DHT22;21791;42.828;74.582;2022-12-18T15:54:06;-3.50;99.90
35678;DHT22;21791;42.828;74.582;2022-12-18T15:56:36;-3.10;99.90
35678;DHT22;21791;42.828;74.582;2022-12-18T15:59:22;-3.60;99.90
35678;DHT22;21791;42.828;74.582;2022-12-18T16:01:59;-3.10;99.90
35678;DHT22;21791;42.828;74.582;2022-12-18T16:04:26;-3.10;99.90
35678;DHT22;21791;42.828;74.582;2022-12-18T16:06:53;-2.90;99.90
35678;DHT22;21791;42.828;74.582;2022-12-18T16:09:21;-3.00;99.90
35678;DHT22;21791;42.828;74.582;2022-12-18T16:11:48;-2.70;99.90
35678;DHT22;21791;42.828;74.582;2022-12-18T16:14:27;-3.30;99.90
35678;DHT22;21791;42.828;74.582;2022-12-18T16:16:56;-2.80;99.90
35678;DHT22;21791;42.828;74.582;2022-12-18T16:19:24;-3.20;99.90
35678;DHT22;21791;42.828;74.582;2022-12-18T16:21:55;-3.00;99.90
35678;DHT22;21791;42.828;74.582;2022-12-18T16:24:28;-3.30;99.90
35678;DHT22;21791;42.828;74.582;2022-12-18T16:26:56;-3.30;99.90
35678;DHT22;21791;42.828;74.582;2022-12-18T16:29:24;-3.40;99.90
35678;DHT22;21791;42.828;74.582;2022-12-18T16:31:54;-2.80;99.90
35678;DHT22;21791;42.828;74.582;2022-12-18T16:36:53;-2.90;99.90
35678;DHT22;21791;42.828;74.582;2022-12-18T16:39:20;-3.10;99.90
35678;DHT22;21791;42.828;74.582;2022-12-18T16:41:47;-2.60;99.90
35678;DHT22;21791;42.828;74.582;2022-12-18T16:44:15;-2.70;99.90
35678;DHT22;21791;42.828;74.582;2022-12-18T16:46:42;-3.20;99.90
35678;DHT22;21791;42.828;74.582;2022-12-18T16:49:12;-2.80;99.90
35678;DHT22;21791;42.828;74.582;2022-12-18T16:51:39;-3.20;99.90
35678;DHT22;21791;42.828;74.582;2022-12-18T16:54:05;-3.10;99.90
35678;DHT22;21791;42.828;74.582;2022-12-18T16:56:33;-3.30;99.90
35678;DHT22;21791;42.828;74.582;2022-12-18T16:59:00;-3.80;99.90
35678;DHT22;21791;42.828;74.582;2022-12-18T17:01:29;-3.70;99.90
35678;DHT22;21791;42.828;74.582;2022-12-18T17:03:59;-3.90;99.90
35678;DHT22;21791;42.828;74.582;2022-12-18T17:06:28;-3.70;99.90
35678;DHT22;21791;42.828;74.582;2022-12-18T17:08:57;-4.00;99.90
35678;DHT22;21791;42.828;74.582;2022-12-18T17:11:25;-4.00;99.90
35678;DHT22;21791;42.828;74.582;2022-12-18T17:13:52;-4.20;99.90
35678;DHT22;21791;42.828;74.582;2022-12-18T17:16:24;-4.50;99.90
35678;DHT22;21791;42.828;74.582;2022-12-18T17:18:53;-4.50;99.90
35678;DHT22;21791;42.828;74.582;2022-12-18T17:21:20;-4.70;99.90
35678;DHT22;21791;42.828;74.582;2022-12-18T17:23:47;-4.60;99.90
35678;DHT22;21791;42.828;74.582;2022-12-18T17:26:14;-4.30;99.90